Arrington, Tennessee
Current Conditions -  °F | °C
As of 5:53 AM on Sunday 21 Dec 2014 (Local Time) from KBNA Reporting Station
Haze Haze  
Wind Chill: -4°   Ceiling: Unl
Heat Index: -4°   Visibility: 6mi
Dew Point: -5°   Wind: 3mph
Humidity: 92%   Direction: 170°S
Pressure: 30.25"   Gusts: NA
Location:  35.87°N, 86.71°W
Report Text: KBNA 211153Z 17003KT 6SM BR CLR M04/M05 A3025 RMK AO2 SLP248 T10391050 11011 21039 55004
Loading
Personal Weather Stations






























Interactive Weather Map New forecast layout! Learn more

10-Day Weather Forecast

Advertisements
Track Severe Weather on mobile